createdAt,value
2022-07-25T00:01:59.495Z,24.50
2022-07-25T00:06:02.368Z,24.20
2022-07-25T00:10:05.036Z,23.70
2022-07-25T00:14:07.617Z,23.30
2022-07-25T00:18:09.730Z,24.00
2022-07-25T00:22:11.485Z,24.10
2022-07-25T00:26:14.468Z,24.40
2022-07-25T00:30:16.273Z,24.30
2022-07-25T00:34:18.033Z,24.20
2022-07-25T00:38:19.777Z,24.00
2022-07-25T00:42:24.255Z,24.00
2022-07-25T00:46:26.053Z,23.80
2022-07-25T00:50:29.363Z,23.80
2022-07-25T00:54:31.319Z,23.70
2022-07-25T00:58:33.783Z,23.00
2022-07-25T01:02:35.594Z,22.90
2022-07-25T01:06:38.468Z,23.50
2022-07-25T01:10:40.587Z,23.90
2022-07-25T01:14:42.348Z,24.00
2022-07-25T01:18:44.500Z,23.50
2022-07-25T01:22:46.636Z,23.90
2022-07-25T01:26:48.413Z,23.80
2022-07-25T01:30:50.179Z,24.00
2022-07-25T01:34:51.946Z,23.50
2022-07-25T01:38:54.307Z,23.00
2022-07-25T01:42:56.136Z,22.80
2022-07-25T01:46:57.955Z,22.90
2022-07-25T01:51:00.330Z,23.20
2022-07-25T01:55:02.227Z,23.30
2022-07-25T01:59:04.109Z,23.30
2022-07-25T02:03:24.841Z,23.30
2022-07-25T02:07:26.613Z,23.20
2022-07-25T02:11:28.463Z,23.30
2022-07-25T02:15:30.275Z,23.30
2022-07-25T02:19:32.223Z,23.10
2022-07-25T02:23:34.084Z,22.80
2022-07-25T02:27:35.884Z,22.90
2022-07-25T02:31:37.799Z,23.40
2022-07-25T02:36:17.479Z,23.80
2022-07-25T02:40:19.284Z,23.60
2022-07-25T02:44:21.042Z,23.10
2022-07-25T02:48:23.629Z,23.10
2022-07-25T02:52:25.431Z,23.30
2022-07-25T02:56:30.252Z,23.40
2022-07-25T03:00:33.984Z,23.30
2022-07-25T03:04:35.958Z,23.60
2022-07-25T03:08:38.204Z,23.60
2022-07-25T03:12:41.140Z,23.50
2022-07-25T03:16:42.949Z,23.50
2022-07-25T03:20:44.740Z,23.20
2022-07-25T03:24:46.561Z,22.80
2022-07-25T03:28:48.512Z,23.10
2022-07-25T03:32:50.301Z,23.40
2022-07-25T03:36:52.086Z,23.30
2022-07-25T03:40:53.953Z,23.30
2022-07-25T03:44:55.779Z,23.20
2022-07-25T03:48:57.702Z,22.90
2022-07-25T03:52:59.577Z,22.70
2022-07-25T03:57:01.586Z,22.40
2022-07-25T04:01:03.329Z,22.50
2022-07-25T04:05:07.381Z,22.00
2022-07-25T04:09:10.373Z,22.30
2022-07-25T04:13:12.852Z,22.30
2022-07-25T04:17:15.000Z,22.80
2022-07-25T04:21:20.249Z,22.70
2022-07-25T04:25:22.193Z,23.00
2022-07-25T04:29:24.047Z,23.00
2022-07-25T04:33:26.132Z,22.60
2022-07-25T04:37:27.915Z,22.60
2022-07-25T04:41:30.560Z,22.70
2022-07-25T04:45:33.307Z,23.00
2022-07-25T04:49:35.083Z,23.20
2022-07-25T04:53:36.951Z,23.30
2022-07-25T04:57:39.079Z,22.40
2022-07-25T05:02:18.455Z,22.90
2022-07-25T05:06:20.250Z,22.80
2022-07-25T05:10:22.216Z,22.70
2022-07-25T05:14:23.998Z,23.00
2022-07-25T05:18:28.368Z,23.20
2022-07-25T05:22:30.366Z,23.30
2022-07-25T05:26:32.172Z,23.60
2022-07-25T05:30:39.302Z,23.50
2022-07-25T05:34:41.783Z,23.50
2022-07-25T05:38:43.546Z,23.80
2022-07-25T05:42:45.965Z,24.20
2022-07-25T05:46:47.846Z,24.60
2022-07-25T05:50:49.694Z,25.00
2022-07-25T05:54:51.704Z,24.90
2022-07-25T05:58:58.226Z,25.00
2022-07-25T06:03:03.087Z,24.80
2022-07-25T06:07:05.131Z,25.30
2022-07-25T06:11:08.303Z,25.50
2022-07-25T06:15:22.097Z,25.80
2022-07-25T06:19:24.936Z,26.20
2022-07-25T06:23:28.289Z,26.50
2022-07-25T06:27:37.953Z,26.60
2022-07-25T06:31:40.381Z,26.80
2022-07-25T06:35:43.366Z,26.60
2022-07-25T06:39:45.987Z,26.50
2022-07-25T06:43:48.271Z,26.30
2022-07-25T06:52:25.705Z,27.10
2022-07-25T06:56:31.439Z,27.00
2022-07-25T07:00:33.291Z,27.20
2022-07-25T07:04:35.172Z,27.50
2022-07-25T07:08:37.779Z,27.10
2022-07-25T07:12:39.779Z,26.60
2022-07-25T07:16:42.437Z,27.20
2022-07-25T07:20:44.846Z,27.50
2022-07-25T07:24:48.231Z,27.50
2022-07-25T07:28:50.171Z,27.70
2022-07-25T07:32:52.111Z,27.30
2022-07-25T07:37:11.803Z,27.60
2022-07-25T07:41:14.060Z,27.60
2022-07-25T07:45:21.416Z,27.20
2022-07-25T07:49:23.221Z,27.50
2022-07-25T07:53:47.753Z,28.00
2022-07-25T07:57:50.616Z,28.20
2022-07-25T08:01:52.625Z,28.00
2022-07-25T08:05:54.511Z,28.00
2022-07-25T08:10:07.902Z,28.50
2022-07-25T08:14:10.282Z,28.50
2022-07-25T08:18:17.501Z,28.10
2022-07-25T08:22:20.210Z,28.70
2022-07-25T08:26:35.242Z,29.10
2022-07-25T08:30:38.789Z,29.30
2022-07-25T08:34:41.128Z,28.20
2022-07-25T08:38:43.961Z,28.10
2022-07-25T08:42:47.564Z,29.00
2022-07-25T08:47:00.474Z,29.10
2022-07-25T08:51:03.327Z,29.20
2022-07-25T08:55:09.050Z,29.70
2022-07-25T08:59:11.287Z,29.90
2022-07-25T09:03:13.545Z,30.00
2022-07-25T09:07:15.603Z,29.90
2022-07-25T09:11:35.195Z,29.60
2022-07-25T09:15:55.915Z,30.00
2022-07-25T09:19:58.255Z,30.10
2022-07-25T09:24:16.816Z,30.20
2022-07-25T09:28:19.829Z,30.50
2022-07-25T09:32:22.911Z,30.30
2022-07-25T09:36:25.048Z,31.00
2022-07-25T09:40:34.829Z,30.80
2022-07-25T09:44:38.847Z,30.90
2022-07-25T09:48:56.652Z,31.20
2022-07-25T09:53:03.904Z,31.50
2022-07-25T09:57:12.992Z,31.60
2022-07-25T10:01:22.849Z,31.60
2022-07-25T10:05:56.782Z,31.80
2022-07-25T10:10:00.410Z,32.00
2022-07-25T10:14:12.005Z,32.20
2022-07-25T10:18:16.458Z,31.80
2022-07-25T10:22:29.418Z,31.90
2022-07-25T10:27:03.730Z,31.50
2022-07-25T10:31:19.673Z,31.60
2022-07-25T10:35:25.954Z,31.90
2022-07-25T10:39:45.055Z,32.00
2022-07-25T10:43:48.922Z,32.00
2022-07-25T10:47:55.975Z,31.50
2022-07-25T10:52:05.656Z,31.60
2022-07-25T10:56:15.439Z,31.40
2022-07-25T11:00:23.825Z,31.60
2022-07-25T11:04:26.165Z,31.70
2022-07-25T11:08:57.825Z,32.20
2022-07-25T11:13:08.158Z,32.70
2022-07-25T11:17:12.781Z,32.90
2022-07-25T11:21:14.770Z,33.00
2022-07-25T11:25:26.337Z,32.80
2022-07-25T11:29:28.450Z,32.90
2022-07-25T11:33:30.659Z,32.40
2022-07-25T11:37:38.133Z,32.90
2022-07-25T11:41:42.872Z,32.90
2022-07-25T11:45:45.147Z,33.00
2022-07-25T11:49:49.904Z,32.90
2022-07-25T11:54:03.113Z,32.70
2022-07-25T11:58:08.709Z,33.20
2022-07-25T12:02:33.706Z,33.00
2022-07-25T12:06:35.953Z,32.80
2022-07-25T12:10:47.513Z,33.10
2022-07-25T12:14:52.817Z,33.10
2022-07-25T12:19:04.815Z,32.80
2022-07-25T12:23:11.524Z,32.80
2022-07-25T12:27:23.268Z,33.20
2022-07-25T12:31:28.714Z,33.10
2022-07-25T12:35:42.123Z,33.00
2022-07-25T12:39:44.112Z,33.60
2022-07-25T12:43:46.182Z,34.20
2022-07-25T12:47:48.578Z,33.60
2022-07-25T12:51:56.118Z,33.90
2022-07-25T12:56:02.433Z,34.80
2022-07-25T13:00:11.395Z,34.70
2022-07-25T13:04:30.905Z,35.10
2022-07-25T13:08:33.478Z,34.80
2022-07-25T13:12:45.075Z,34.40
2022-07-25T13:16:48.529Z,34.10
2022-07-25T13:20:51.033Z,34.10
2022-07-25T13:24:53.825Z,33.70
2022-07-25T13:29:05.215Z,34.20
2022-07-25T13:33:10.202Z,34.50
2022-07-25T13:37:12.097Z,34.50
2022-07-25T13:41:21.573Z,34.00
2022-07-25T13:45:23.529Z,34.00
2022-07-25T13:49:25.960Z,34.00
2022-07-25T13:53:30.486Z,34.40
2022-07-25T13:57:33.610Z,33.90
2022-07-25T14:01:47.587Z,34.40
2022-07-25T14:05:49.914Z,34.30
2022-07-25T14:09:54.458Z,34.80
2022-07-25T14:13:56.560Z,34.80
2022-07-25T14:17:58.786Z,34.70
2022-07-25T14:22:01.123Z,34.80
2022-07-25T14:26:03.130Z,34.90
2022-07-25T14:30:08.675Z,34.50
2022-07-25T14:34:10.927Z,35.10
2022-07-25T14:38:13.168Z,34.30
2022-07-25T14:42:17.512Z,34.00
2022-07-25T14:46:20.168Z,34.80
2022-07-25T14:50:25.492Z,34.80
2022-07-25T14:54:28.594Z,35.00
2022-07-25T14:58:30.946Z,34.90
2022-07-25T15:02:45.785Z,34.30
2022-07-25T15:06:48.910Z,34.20
2022-07-25T15:10:51.078Z,34.20
2022-07-25T15:14:52.976Z,33.90
2022-07-25T15:19:17.306Z,33.70
2022-07-25T15:23:21.079Z,33.80
2022-07-25T15:27:23.245Z,33.80
2022-07-25T15:31:26.585Z,33.80
2022-07-25T15:35:29.014Z,33.80
2022-07-25T15:39:47.414Z,33.50
2022-07-25T15:44:03.927Z,33.50
2022-07-25T15:48:10.724Z,33.60
2022-07-25T15:52:33.055Z,33.60
2022-07-25T15:56:35.071Z,33.60
2022-07-25T16:00:45.218Z,33.70
2022-07-25T16:04:48.491Z,33.80
2022-07-25T16:08:54.632Z,32.90
2022-07-25T16:12:59.050Z,32.90
2022-07-25T16:17:01.061Z,32.80
2022-07-25T16:21:07.949Z,32.70
2022-07-25T16:25:09.886Z,32.80
2022-07-25T16:29:17.583Z,32.80
2022-07-25T16:33:21.558Z,32.30
2022-07-25T16:37:23.864Z,31.70
2022-07-25T16:41:25.877Z,31.50
2022-07-25T16:45:29.172Z,31.90
2022-07-25T16:49:33.381Z,32.30
2022-07-25T16:53:41.747Z,32.10
2022-07-25T16:57:54.036Z,32.30
2022-07-25T17:01:56.646Z,32.70
2022-07-25T17:05:58.614Z,33.40
2022-07-25T17:10:00.445Z,32.90
2022-07-25T17:14:05.181Z,32.30
2022-07-25T17:18:10.010Z,32.70
2022-07-25T17:22:21.607Z,32.70
2022-07-25T17:26:28.922Z,32.70
2022-07-25T17:30:30.805Z,32.50
2022-07-25T17:34:36.020Z,32.20
2022-07-25T17:38:38.544Z,31.70
2022-07-25T17:42:44.736Z,31.50
2022-07-25T17:46:47.355Z,31.70
2022-07-25T17:50:49.600Z,32.00
2022-07-25T17:54:53.611Z,31.60
2022-07-25T17:58:55.665Z,31.20
2022-07-25T18:02:57.720Z,32.10
2022-07-25T18:07:02.373Z,31.90
2022-07-25T18:11:04.231Z,31.50
2022-07-25T18:15:06.809Z,31.50
2022-07-25T18:19:08.805Z,31.20
2022-07-25T18:23:10.782Z,31.00
2022-07-25T18:27:21.177Z,31.40
2022-07-25T18:31:23.153Z,31.50
2022-07-25T18:35:25.085Z,30.90
2022-07-25T18:39:27.262Z,31.30
2022-07-25T18:43:29.298Z,31.00
2022-07-25T18:47:37.147Z,31.00
2022-07-25T18:51:39.738Z,31.70
2022-07-25T18:55:48.531Z,31.60
2022-07-25T18:59:50.499Z,31.90
2022-07-25T19:03:52.518Z,31.90
2022-07-25T19:07:56.660Z,31.70
2022-07-25T19:11:58.626Z,32.10
2022-07-25T19:16:05.945Z,31.60
2022-07-25T19:20:09.805Z,31.40
2022-07-25T19:24:12.782Z,31.40
2022-07-25T19:28:16.114Z,31.40
2022-07-25T19:32:18.402Z,31.40
2022-07-25T19:36:25.920Z,31.40
2022-07-25T19:40:27.872Z,30.80
2022-07-25T19:44:29.870Z,29.80
2022-07-25T19:48:32.072Z,29.50
2022-07-25T19:52:34.058Z,29.40
2022-07-25T19:56:41.585Z,29.10
2022-07-25T20:00:43.643Z,29.00
2022-07-25T20:04:45.658Z,28.70
2022-07-25T20:08:51.068Z,28.50
2022-07-25T20:13:01.803Z,28.60
2022-07-25T20:17:04.103Z,27.90
2022-07-25T20:21:08.756Z,28.00
2022-07-25T20:25:15.532Z,27.80
2022-07-25T20:29:18.155Z,27.80
2022-07-25T20:33:20.154Z,27.80
2022-07-25T20:37:22.311Z,28.30
2022-07-25T20:41:27.545Z,28.80
2022-07-25T20:45:41.134Z,28.30
2022-07-25T20:49:44.068Z,28.80
2022-07-25T20:53:53.250Z,28.40
2022-07-25T20:57:55.807Z,28.00
2022-07-25T21:01:58.100Z,28.20
2022-07-25T21:06:03.633Z,28.60
2022-07-25T21:10:06.351Z,27.30
2022-07-25T21:14:08.793Z,27.50
2022-07-25T21:18:13.569Z,27.60
2022-07-25T21:22:25.630Z,27.80
2022-07-25T21:26:27.531Z,27.40
2022-07-25T21:30:29.432Z,27.30
2022-07-25T21:34:31.317Z,27.30
2022-07-25T21:38:35.017Z,27.20
2022-07-25T21:42:37.966Z,26.50
2022-07-25T21:46:39.741Z,26.90
2022-07-25T21:50:44.187Z,26.20
2022-07-25T21:54:46.664Z,26.40
2022-07-25T21:58:49.033Z,26.80
2022-07-25T22:02:58.666Z,26.80
2022-07-25T22:07:00.657Z,27.40
2022-07-25T22:11:15.579Z,28.10
2022-07-25T22:15:24.501Z,27.80
2022-07-25T22:19:46.507Z,27.70
2022-07-25T22:23:48.457Z,27.80
2022-07-25T22:27:58.015Z,28.30
2022-07-25T22:32:00.543Z,28.80
2022-07-25T22:36:02.601Z,29.00
2022-07-25T22:40:04.954Z,28.70
2022-07-25T22:44:06.933Z,28.60
2022-07-25T22:48:17.883Z,28.40
2022-07-25T22:52:19.962Z,28.50
2022-07-25T22:56:23.260Z,28.80
2022-07-25T23:00:25.285Z,28.90
2022-07-25T23:04:27.367Z,28.70
2022-07-25T23:08:29.863Z,29.00
2022-07-25T23:12:32.157Z,29.00
2022-07-25T23:16:34.140Z,29.10
2022-07-25T23:20:36.072Z,28.80
2022-07-25T23:24:38.266Z,28.60
2022-07-25T23:28:40.383Z,28.80
2022-07-25T23:32:42.367Z,28.70
2022-07-25T23:36:47.226Z,29.00
2022-07-25T23:40:50.028Z,28.70
2022-07-25T23:44:51.914Z,28.80
2022-07-25T23:49:00.107Z,28.80
2022-07-25T23:53:02.197Z,28.60
2022-07-25T23:57:04.644Z,28.50
